Time;durP1;ratioP1;P1;durP2;ratioP2;P2;SDS_P1;SDS_P2;PMS_P1;PMS_P2;Temp;Humidity;BMP_temperature;BMP_pressure;BME280_temperature;BME280_humidity;BME280_pressure;Samples;Min_cycle;Max_cycle;Signal;HPM_P1;HPM_P2
2021/04/09 00:00:24;;;;;;;2.75;1.23;;;10.50;87.40;;;;;;4982997;28;20078;-77
2021/04/09 00:02:53;;;;;;;2.65;1.40;;;10.40;87.40;;;;;;4971989;28;20046;-77
2021/04/09 00:05:22;;;;;;;2.90;1.02;;;10.30;87.40;;;;;;4987352;28;20224;-77
2021/04/09 00:07:52;;;;;;;1.60;0.88;;;10.30;87.60;;;;;;4971797;28;20034;-77
2021/04/09 00:10:22;;;;;;;2.10;0.85;;;10.30;87.40;;;;;;4930496;29;20047;-77
2021/04/09 00:12:50;;;;;;;2.70;1.00;;;10.40;87.20;;;;;;4960690;28;20043;-77
2021/04/09 00:15:19;;;;;;;2.38;1.00;;;10.40;87.20;;;;;;4957783;28;20053;-78
2021/04/09 00:17:47;;;;;;;2.65;0.88;;;10.20;87.50;;;;;;4961170;28;20409;-77
2021/04/09 00:20:19;;;;;;;1.90;1.00;;;10.20;87.60;;;;;;4960596;28;20130;-77
2021/04/09 00:22:47;;;;;;;2.45;1.10;;;10.20;87.80;;;;;;4967531;28;20035;-77
2021/04/09 00:25:19;;;;;;;2.17;1.15;;;10.30;88.10;;;;;;4946833;28;20039;-76
2021/04/09 00:27:47;;;;;;;3.35;0.80;;;10.30;88.10;;;;;;4939144;28;20499;-76
2021/04/09 00:30:22;;;;;;;1.75;0.90;;;10.30;87.60;;;;;;4961465;28;20045;-76
2021/04/09 00:32:50;;;;;;;2.55;0.93;;;10.30;87.60;;;;;;4966388;28;20046;-75
2021/04/09 00:35:19;;;;;;;2.42;1.05;;;10.30;87.40;;;;;;4947660;28;20487;-75
2021/04/09 00:37:48;;;;;;;1.58;1.13;;;10.30;87.50;;;;;;4946057;28;20311;-75
2021/04/09 00:40:18;;;;;;;2.03;1.05;;;10.30;87.50;;;;;;4945754;28;20067;-75
2021/04/09 00:42:46;;;;;;;2.90;1.40;;;10.40;87.40;;;;;;4969889;28;20038;-75
2021/04/09 00:45:15;;;;;;;2.72;1.23;;;10.40;87.40;;;;;;4950468;28;20400;-75
2021/04/09 00:47:43;;;;;;;2.17;1.27;;;10.30;87.50;;;;;;4948738;28;20472;-76
2021/04/09 00:50:12;;;;;;;3.08;0.90;;;10.30;87.60;;;;;;4947534;28;20047;-75
2021/04/09 00:52:46;;;;;;;1.60;0.80;;;10.30;87.80;;;;;;4948546;28;20046;-76
2021/04/09 00:55:17;;;;;;;1.13;0.80;;;10.20;87.90;;;;;;4963759;28;20129;-76
2021/04/09 00:57:46;;;;;;;1.48;0.80;;;10.30;87.70;;;;;;4960786;28;20061;-75
2021/04/09 01:00:15;;;;;;;1.55;0.95;;;10.30;87.50;;;;;;4949359;28;20066;-75
2021/04/09 01:02:44;;;;;;;3.08;0.93;;;10.40;87.30;;;;;;4962155;28;20035;-75
2021/04/09 01:05:14;;;;;;;2.55;0.88;;;10.40;87.30;;;;;;4946686;28;20057;-75
2021/04/09 01:07:44;;;;;;;3.03;1.05;;;10.20;87.80;;;;;;4955856;28;20047;-75
2021/04/09 01:10:13;;;;;;;3.25;1.02;;;10.20;88.10;;;;;;4982185;28;20050;-75
2021/04/09 01:12:43;;;;;;;3.95;1.10;;;10.20;88.30;;;;;;4977917;28;20100;-75
2021/04/09 01:15:13;;;;;;;2.53;1.02;;;10.20;88.20;;;;;;4986896;28;20525;-75
2021/04/09 01:17:43;;;;;;;2.92;1.08;;;10.20;88.20;;;;;;4964662;28;20281;-75
2021/04/09 01:20:29;;;;;;;1.90;1.00;;;10.20;88.40;;;;;;4962940;28;20046;-75
2021/04/09 01:23:12;;;;;;;2.20;0.93;;;10.10;89.00;;;;;;4967525;28;20053;-75
2021/04/09 01:26:17;;;;;;;1.58;1.00;;;10.00;89.20;;;;;;4980947;28;20187;-75
2021/04/09 01:29:05;;;;;;;2.28;1.00;;;10.10;89.20;;;;;;4985676;28;21987;-75
2021/04/09 01:31:44;;;;;;;1.70;1.00;;;10.10;89.20;;;;;;4980042;28;20423;-76
2021/04/09 01:34:13;;;;;;;2.55;1.15;;;10.10;89.30;;;;;;4984202;28;20460;-75
2021/04/09 01:36:44;;;;;;;1.50;0.90;;;10.20;89.10;;;;;;4980674;28;20050;-76
2021/04/09 01:39:19;;;;;;;2.60;0.90;;;10.20;89.10;;;;;;4983588;28;20404;-76
2021/04/09 01:41:50;;;;;;;5.47;1.10;;;10.20;89.00;;;;;;4979844;28;20046;-76
2021/04/09 01:44:23;;;;;;;5.22;1.20;;;10.10;89.10;;;;;;4971142;28;20512;-76
2021/04/09 01:46:54;;;;;;;2.55;1.02;;;10.10;89.20;;;;;;4966747;28;20046;-76
2021/04/09 01:49:25;;;;;;;1.73;0.95;;;10.10;89.20;;;;;;4952732;28;20619;-76
2021/04/09 01:51:57;;;;;;;1.48;0.95;;;10.10;89.00;;;;;;4977699;28;20050;-75
2021/04/09 01:54:28;;;;;;;2.47;1.05;;;10.10;89.10;;;;;;4980781;28;20049;-76
2021/04/09 01:56:57;;;;;;;1.77;1.08;;;10.10;89.10;;;;;;4949341;28;20570;-76
2021/04/09 01:59:25;;;;;;;3.00;1.10;;;10.10;89.10;;;;;;4949914;28;20054;-76
2021/04/09 02:01:55;;;;;;;1.80;1.20;;;10.00;89.40;;;;;;4963646;28;20137;-76
2021/04/09 02:04:26;;;;;;;4.07;1.30;;;10.00;89.40;;;;;;4976532;28;20054;-76
2021/04/09 02:06:55;;;;;;;5.18;1.60;;;9.90;89.70;;;;;;4965652;28;20053;-76
2021/04/09 02:09:25;;;;;;;1.48;1.00;;;9.90;90.00;;;;;;4977282;28;20067;-76
2021/04/09 02:11:55;;;;;;;4.88;1.50;;;9.80;90.70;;;;;;4974323;28;20053;-76
2021/04/09 02:14:26;;;;;;;2.40;1.38;;;9.90;90.80;;;;;;4946712;28;20082;-76
2021/04/09 02:16:55;;;;;;;3.20;1.40;;;9.90;90.80;;;;;;4945167;28;20050;-76
2021/04/09 02:19:25;;;;;;;2.42;1.10;;;9.90;90.80;;;;;;4962409;28;20066;-76
2021/04/09 02:21:53;;;;;;;2.15;1.10;;;9.90;90.70;;;;;;4951783;28;20054;-76
2021/04/09 02:24:21;;;;;;;3.10;1.55;;;9.80;91.20;;;;;;4947507;28;20070;-76
2021/04/09 02:26:49;;;;;;;3.22;1.33;;;9.80;91.10;;;;;;4966461;28;20047;-75
2021/04/09 02:29:17;;;;;;;3.10;1.67;;;9.90;91.20;;;;;;4951109;28;20042;-76
2021/04/09 02:31:46;;;;;;;4.18;1.30;;;10.00;91.20;;;;;;4961927;28;20129;-75
2021/04/09 02:34:15;;;;;;;2.53;1.52;;;9.90;91.20;;;;;;4961340;28;20038;-76
2021/04/09 02:36:43;;;;;;;3.40;2.13;;;9.80;91.40;;;;;;4946450;28;20089;-76
2021/04/09 02:39:14;;;;;;;4.57;1.60;;;9.80;91.60;;;;;;4945195;28;20051;-75
2021/04/09 02:41:44;;;;;;;3.83;1.42;;;9.80;91.80;;;;;;4950549;28;20655;-76
2021/04/09 02:44:13;;;;;;;2.35;1.48;;;9.80;91.90;;;;;;4955898;28;20318;-76
2021/04/09 02:46:51;;;;;;;4.38;2.10;;;9.80;91.80;;;;;;4931083;28;20054;-76
2021/04/09 02:49:39;;;;;;;2.58;1.42;;;9.80;91.80;;;;;;4928041;28;20320;-76
2021/04/09 02:52:13;;;;;;;3.88;2.03;;;9.80;91.70;;;;;;4963698;28;20061;-76
2021/04/09 02:54:43;;;;;;;3.13;1.75;;;9.70;91.60;;;;;;4942507;28;20416;-75
2021/04/09 02:57:13;;;;;;;3.58;1.67;;;9.70;91.60;;;;;;4942526;28;20217;-76
2021/04/09 02:59:43;;;;;;;2.75;1.77;;;9.80;91.50;;;;;;4958906;28;20555;-75
2021/04/09 03:02:13;;;;;;;2.88;1.90;;;9.80;91.20;;;;;;4965067;28;20043;-74
2021/04/09 03:04:42;;;;;;;3.22;1.90;;;9.80;91.20;;;;;;4946892;28;20050;-76
2021/04/09 03:07:11;;;;;;;2.53;1.60;;;9.80;91.10;;;;;;4945905;28;20042;-76
2021/04/09 03:09:39;;;;;;;4.18;2.25;;;9.70;91.30;;;;;;4961128;28;20053;-76
2021/04/09 03:12:14;;;;;;;4.93;1.70;;;9.70;91.30;;;;;;4981073;28;20049;-77
2021/04/09 03:14:44;;;;;;;3.13;2.10;;;9.70;91.50;;;;;;4983326;23;20109;-77
2021/04/09 03:17:15;;;;;;;4.53;2.00;;;9.70;91.50;;;;;;4993490;28;20054;-76
2021/04/09 03:19:45;;;;;;;3.20;1.75;;;9.80;91.50;;;;;;4986855;28;20051;-76
2021/04/09 03:22:13;;;;;;;4.18;1.88;;;9.90;91.50;;;;;;4969360;28;20050;-77
2021/04/09 03:24:42;;;;;;;4.93;1.80;;;9.90;91.20;;;;;;4969246;28;20133;-76
2021/04/09 03:27:14;;;;;;;4.55;2.15;;;9.90;91.20;;;;;;4962018;28;20050;-76
2021/04/09 03:29:42;;;;;;;4.25;1.67;;;9.80;91.30;;;;;;4977938;28;20049;-76
2021/04/09 03:32:11;;;;;;;4.40;1.67;;;9.70;91.50;;;;;;4958454;28;20070;-76
2021/04/09 03:34:40;;;;;;;3.75;1.65;;;9.50;92.20;;;;;;4971456;28;20047;-76
2021/04/09 03:37:09;;;;;;;4.00;2.00;;;9.50;92.50;;;;;;4975218;28;20117;-76
2021/04/09 03:39:37;;;;;;;2.42;1.75;;;9.60;92.80;;;;;;4968178;28;20042;-77
2021/04/09 03:42:06;;;;;;;2.67;1.80;;;9.60;92.90;;;;;;4974804;28;20062;-76
2021/04/09 03:44:34;;;;;;;2.67;1.88;;;9.60;92.90;;;;;;4960559;28;20531;-76
2021/04/09 03:47:02;;;;;;;4.30;1.65;;;9.60;93.00;;;;;;4966815;28;20042;-76
2021/04/09 03:49:30;;;;;;;2.50;1.58;;;9.60;93.00;;;;;;4974108;28;20753;-77
2021/04/09 03:51:59;;;;;;;3.90;1.88;;;9.60;92.70;;;;;;4962140;28;21301;-77
2021/04/09 03:54:28;;;;;;;2.38;1.63;;;9.50;92.60;;;;;;4990432;28;20042;-77
2021/04/09 03:56:56;;;;;;;2.80;1.50;;;9.50;92.40;;;;;;4968959;28;20051;-77
2021/04/09 03:59:24;;;;;;;3.92;1.75;;;9.50;92.30;;;;;;4972422;28;20145;-77
2021/04/09 04:01:52;;;;;;;2.88;1.58;;;9.50;91.90;;;;;;4979545;28;20046;-77
2021/04/09 04:04:20;;;;;;;2.20;1.50;;;9.50;91.90;;;;;;4972756;28;20050;-76
2021/04/09 04:06:47;;;;;;;3.45;1.48;;;9.50;91.90;;;;;;4972820;28;20042;-77
2021/04/09 04:09:16;;;;;;;3.30;1.52;;;9.50;91.90;;;;;;4974093;28;20114;-77
2021/04/09 04:11:45;;;;;;;3.10;1.50;;;9.50;91.70;;;;;;4969929;28;20050;-76
2021/04/09 04:14:13;;;;;;;3.40;1.52;;;9.30;91.60;;;;;;4960947;28;20046;-76
2021/04/09 04:16:41;;;;;;;3.60;1.75;;;9.10;92.00;;;;;;4976748;28;20042;-77
2021/04/09 04:19:09;;;;;;;4.22;2.53;;;9.00;92.10;;;;;;4979182;28;20034;-77
2021/04/09 04:21:36;;;;;;;3.13;1.40;;;9.10;92.40;;;;;;4970595;28;20560;-76
2021/04/09 04:24:05;;;;;;;3.45;1.70;;;9.20;92.30;;;;;;4978656;28;20057;-77
2021/04/09 04:26:32;;;;;;;2.72;1.52;;;9.20;92.50;;;;;;4977472;28;20216;-76
2021/04/09 04:29:01;;;;;;;2.35;1.50;;;9.20;92.30;;;;;;4980199;28;20488;-77
2021/04/09 04:31:29;;;;;;;4.45;1.40;;;9.20;92.30;;;;;;4971940;28;20043;-77
2021/04/09 04:33:57;;;;;;;2.20;1.27;;;9.10;92.40;;;;;;4958163;28;20034;-77
2021/04/09 04:36:25;;;;;;;2.20;1.20;;;9.10;92.30;;;;;;4972105;28;20039;-77
2021/04/09 04:38:53;;;;;;;2.70;1.30;;;9.00;92.50;;;;;;4963099;28;20098;-77
2021/04/09 04:41:21;;;;;;;3.40;1.20;;;9.00;92.60;;;;;;4975464;28;20462;-76
2021/04/09 04:43:48;;;;;;;3.78;1.17;;;8.80;92.60;;;;;;4979206;28;20042;-77
2021/04/09 04:46:18;;;;;;;2.65;1.23;;;8.80;93.00;;;;;;4970533;28;20050;-77
2021/04/09 04:48:46;;;;;;;2.72;1.20;;;8.80;92.90;;;;;;4961623;28;20062;-77
2021/04/09 04:51:14;;;;;;;3.25;1.33;;;8.80;92.70;;;;;;4973893;28;20356;-77
2021/04/09 04:53:42;;;;;;;3.33;1.30;;;8.70;92.90;;;;;;4974187;28;20452;-77
2021/04/09 04:56:10;;;;;;;2.85;1.38;;;8.60;93.30;;;;;;4973038;28;20035;-77
2021/04/09 04:58:37;;;;;;;2.72;1.60;;;8.60;93.30;;;;;;4980149;28;20046;-77
2021/04/09 05:01:05;;;;;;;5.13;1.52;;;8.50;93.20;;;;;;4979468;28;20105;-77
2021/04/09 05:03:34;;;;;;;3.35;1.30;;;8.40;93.50;;;;;;4974431;28;20102;-77
2021/04/09 05:06:02;;;;;;;4.45;1.77;;;8.40;93.80;;;;;;4976256;28;20152;-78
2021/04/09 05:08:30;;;;;;;5.85;2.25;;;8.40;93.80;;;;;;4972090;28;20042;-77
2021/04/09 05:10:58;;;;;;;4.22;1.90;;;8.40;94.10;;;;;;4972236;28;20466;-76
2021/04/09 05:13:26;;;;;;;4.80;1.60;;;8.30;94.40;;;;;;4978207;28;20077;-77
2021/04/09 05:15:54;;;;;;;4.32;2.05;;;8.30;94.30;;;;;;4976116;28;20045;-77
2021/04/09 05:18:22;;;;;;;4.93;1.98;;;8.30;94.50;;;;;;4994193;28;20038;-76
2021/04/09 05:20:51;;;;;;;3.42;1.80;;;8.50;94.30;;;;;;4980096;28;20049;-78
2021/04/09 05:23:18;;;;;;;3.10;2.00;;;8.60;93.80;;;;;;4961075;28;20145;-77
2021/04/09 05:25:46;;;;;;;3.63;2.03;;;8.40;94.40;;;;;;4975505;28;20137;-78
2021/04/09 05:28:14;;;;;;;6.85;2.63;;;8.50;94.40;;;;;;4987012;28;20033;-77
2021/04/09 05:30:42;;;;;;;3.55;2.13;;;8.60;93.90;;;;;;4977983;28;20053;-78
2021/04/09 05:33:10;;;;;;;5.55;2.20;;;8.60;93.70;;;;;;4976405;28;20034;-78
2021/04/09 05:35:37;;;;;;;4.57;2.42;;;8.70;93.40;;;;;;4961142;28;20492;-77
2021/04/09 05:38:06;;;;;;;7.25;3.15;;;8.70;93.40;;;;;;4994726;28;20427;-77
2021/04/09 05:40:34;;;;;;;8.43;3.42;;;8.80;93.10;;;;;;4980387;28;20053;-78
2021/04/09 05:43:02;;;;;;;6.38;3.92;;;8.70;93.20;;;;;;4997320;28;20056;-78
2021/04/09 05:45:30;;;;;;;6.25;3.90;;;8.70;93.50;;;;;;4974964;28;20380;-78
2021/04/09 05:48:03;;;;;;;8.65;4.65;;;8.60;93.60;;;;;;4975372;28;20045;-77
2021/04/09 05:50:31;;;;;;;9.07;4.28;;;8.70;93.60;;;;;;4980297;28;20053;-78
2021/04/09 05:52:59;;;;;;;8.38;3.95;;;8.70;93.40;;;;;;4973877;28;20129;-77
2021/04/09 05:55:28;;;;;;;8.57;3.83;;;8.60;93.90;;;;;;4984332;28;20042;-78
2021/04/09 05:57:56;;;;;;;8.85;4.55;;;8.80;93.50;;;;;;4976061;28;20407;-78
2021/04/09 06:00:24;;;;;;;8.40;3.78;;;8.90;92.80;;;;;;4980970;28;20053;-78
2021/04/09 06:02:54;;;;;;;7.25;3.28;;;9.00;92.70;;;;;;4978841;28;20542;-77
2021/04/09 06:05:22;;;;;;;7.63;2.78;;;9.10;92.40;;;;;;4981063;28;20606;-78
2021/04/09 06:07:55;;;;;;;4.78;2.22;;;9.20;91.90;;;;;;4976421;28;20047;-77
2021/04/09 06:10:24;;;;;;;4.65;1.98;;;9.30;91.60;;;;;;4989372;28;20052;-78
2021/04/09 06:12:52;;;;;;;2.40;1.25;;;9.30;91.70;;;;;;4993733;28;20034;-78
2021/04/09 06:15:21;;;;;;;3.00;1.70;;;9.40;91.50;;;;;;4996002;28;20100;-77
2021/04/09 06:17:49;;;;;;;4.03;1.50;;;9.40;91.60;;;;;;4977769;28;20050;-78
2021/04/09 06:20:18;;;;;;;6.03;1.67;;;9.40;91.00;;;;;;4996257;28;20113;-78
2021/04/09 06:22:47;;;;;;;8.18;1.67;;;9.40;91.20;;;;;;4976844;28;20050;-78
2021/04/09 06:25:16;;;;;;;6.82;2.40;;;9.30;91.40;;;;;;4975110;28;20132;-78
2021/04/09 06:27:44;;;;;;;9.75;2.60;;;9.40;91.50;;;;;;4978808;28;20125;-79
2021/04/09 06:30:14;;;;;;;8.13;2.60;;;9.50;91.80;;;;;;4993342;28;20037;-78
2021/04/09 06:32:42;;;;;;;7.95;2.95;;;9.50;91.70;;;;;;4963748;28;20052;-78
2021/04/09 06:35:11;;;;;;;5.07;2.50;;;9.50;91.50;;;;;;4992864;28;20502;-78
2021/04/09 06:37:39;;;;;;;5.97;2.05;;;9.50;91.60;;;;;;4978295;28;20069;-78
2021/04/09 06:40:10;;;;;;;6.00;2.35;;;9.50;91.70;;;;;;4991105;28;20525;-78
2021/04/09 06:42:38;;;;;;;8.05;3.38;;;9.60;91.50;;;;;;4976175;28;20042;-78
2021/04/09 06:45:07;;;;;;;7.43;3.30;;;9.70;91.40;;;;;;4980446;28;20042;-77
2021/04/09 06:47:36;;;;;;;18.30;7.45;;;9.60;91.70;;;;;;4994574;28;20125;-78
2021/04/09 06:50:06;;;;;;;16.13;7.53;;;9.70;91.80;;;;;;4966882;28;20129;-78
2021/04/09 06:52:34;;;;;;;13.25;6.50;;;9.70;92.30;;;;;;4977798;28;20141;-77
2021/04/09 06:55:04;;;;;;;10.68;5.00;;;9.60;92.60;;;;;;4973522;28;20434;-78
2021/04/09 06:57:34;;;;;;;11.30;5.03;;;9.70;92.40;;;;;;4978746;28;20137;-78
2021/04/09 07:00:07;;;;;;;9.20;4.32;;;9.70;92.10;;;;;;4964600;28;20049;-78
2021/04/09 07:02:36;;;;;;;7.57;4.13;;;9.70;92.40;;;;;;4996963;28;20045;-78
2021/04/09 07:05:05;;;;;;;3.78;2.58;;;9.80;92.40;;;;;;4993282;28;20041;-78
2021/04/09 07:07:34;;;;;;;7.93;2.80;;;9.90;91.80;;;;;;4979990;28;20461;-78
2021/04/09 07:10:02;;;;;;;4.93;2.15;;;10.00;91.50;;;;;;4994493;28;20145;-78
2021/04/09 07:12:32;;;;;;;3.90;2.45;;;10.00;91.70;;;;;;4975387;28;20128;-78
2021/04/09 07:15:01;;;;;;;5.60;2.42;;;10.10;92.00;;;;;;4975005;28;20876;-78
2021/04/09 07:17:33;;;;;;;4.78;2.88;;;10.20;92.10;;;;;;4975910;28;20057;-78
2021/04/09 07:20:12;;;;;;;4.32;2.30;;;10.20;92.00;;;;;;4979849;28;20053;-77
2021/04/09 07:22:41;;;;;;;4.50;2.55;;;10.20;91.90;;;;;;4993297;28;20042;-77
2021/04/09 07:25:12;;;;;;;4.80;2.40;;;10.30;92.10;;;;;;4975901;28;20513;-75
2021/04/09 07:27:41;;;;;;;6.03;2.42;;;10.40;92.00;;;;;;4946862;28;20056;-76
2021/04/09 07:30:14;;;;;;;5.97;2.30;;;10.50;91.70;;;;;;4993181;28;20398;-76
2021/04/09 07:32:43;;;;;;;5.50;2.28;;;10.50;90.70;;;;;;4991664;28;20263;-78
2021/04/09 07:35:14;;;;;;;4.35;2.60;;;10.60;90.70;;;;;;4993424;28;20837;-75
2021/04/09 07:37:51;;;;;;;5.55;2.88;;;10.60;90.70;;;;;;4998993;28;20057;-78
2021/04/09 07:40:26;;;;;;;4.95;2.05;;;10.70;90.50;;;;;;4981882;28;20046;-77
2021/04/09 07:42:55;;;;;;;5.22;2.35;;;10.70;90.40;;;;;;4996105;28;20038;-77
2021/04/09 07:45:25;;;;;;;3.33;1.70;;;10.80;90.10;;;;;;4981056;28;20074;-76
2021/04/09 07:48:03;;;;;;;3.28;1.60;;;10.90;89.50;;;;;;4977097;28;20126;-76
2021/04/09 07:50:38;;;;;;;4.95;1.65;;;11.00;89.10;;;;;;4974324;28;20133;-76
2021/04/09 07:53:08;;;;;;;3.85;1.65;;;11.10;88.80;;;;;;4966823;28;20046;-76
2021/04/09 07:55:37;;;;;;;4.85;1.88;;;11.10;88.20;;;;;;4977865;28;20041;-76
2021/04/09 07:58:16;;;;;;;3.08;1.42;;;11.20;88.00;;;;;;4984504;28;20588;-75
2021/04/09 08:00:46;;;;;;;2.35;1.40;;;11.30;87.90;;;;;;4982003;28;20038;-75
2021/04/09 08:03:30;;;;;;;3.45;1.48;;;11.40;87.50;;;;;;4985168;28;20074;-76
2021/04/09 08:06:08;;;;;;;3.45;1.75;;;11.50;86.90;;;;;;4967602;28;20161;-76
2021/04/09 08:08:37;;;;;;;4.57;1.60;;;11.50;86.70;;;;;;4976803;28;20050;-77
2021/04/09 08:11:22;;;;;;;2.45;1.50;;;11.70;86.20;;;;;;4977920;28;20538;-78
2021/04/09 08:14:02;;;;;;;3.90;1.45;;;11.80;86.20;;;;;;4992889;28;20049;-77
2021/04/09 08:16:32;;;;;;;4.47;1.60;;;12.00;85.60;;;;;;4979151;28;20046;-77
2021/04/09 08:19:02;;;;;;;4.82;2.30;;;12.10;85.50;;;;;;4975515;28;20072;-77
2021/04/09 08:21:33;;;;;;;5.22;2.22;;;12.10;85.30;;;;;;4964185;28;20574;-77
2021/04/09 08:24:03;;;;;;;3.65;1.70;;;12.20;85.00;;;;;;4978729;28;20551;-76
2021/04/09 08:26:31;;;;;;;6.18;1.83;;;12.30;84.60;;;;;;4963517;28;20041;-77
2021/04/09 08:29:00;;;;;;;4.07;1.50;;;12.30;84.60;;;;;;4979417;28;20042;-77
2021/04/09 08:31:28;;;;;;;3.38;1.73;;;12.30;84.40;;;;;;4962339;28;20818;-77
2021/04/09 08:33:56;;;;;;;2.80;1.52;;;12.30;84.20;;;;;;4977728;28;20133;-77
2021/04/09 08:36:26;;;;;;;5.00;1.80;;;12.40;84.00;;;;;;4977183;28;20061;-77
2021/04/09 08:38:55;;;;;;;4.55;1.90;;;12.60;83.50;;;;;;4973080;28;20049;-76
2021/04/09 08:41:24;;;;;;;2.95;1.45;;;12.70;83.80;;;;;;4977871;28;20050;-77
2021/04/09 08:43:53;;;;;;;4.97;1.95;;;12.70;83.40;;;;;;4982684;28;20500;-77
2021/04/09 08:46:21;;;;;;;3.72;1.55;;;12.80;83.50;;;;;;4978648;28;20066;-77
2021/04/09 08:48:49;;;;;;;5.22;1.65;;;12.90;83.00;;;;;;4991730;28;20048;-78
2021/04/09 08:51:23;;;;;;;4.13;1.58;;;12.90;83.50;;;;;;4980818;28;20054;-79
2021/04/09 08:53:51;;;;;;;6.32;1.83;;;13.10;83.30;;;;;;4972709;28;20046;-77
2021/04/09 08:56:36;;;;;;;10.82;1.80;;;13.20;82.40;;;;;;4977393;28;20097;-77
2021/04/09 08:59:04;;;;;;;3.65;1.70;;;13.20;82.20;;;;;;4976164;28;20050;-77
2021/04/09 09:01:32;;;;;;;3.03;1.48;;;13.30;82.10;;;;;;4976470;28;20074;-78
2021/04/09 09:04:33;;;;;;;2.78;0.93;;;13.40;82.20;;;;;;4975350;28;20066;-77
2021/04/09 09:07:02;;;;;;;4.28;1.10;;;13.50;80.80;;;;;;4939440;28;20049;-77
2021/04/09 09:09:32;;;;;;;3.72;0.93;;;13.60;80.90;;;;;;4977588;28;20472;-77
2021/04/09 09:12:01;;;;;;;2.65;0.80;;;13.60;80.10;;;;;;4960232;28;20051;-78
2021/04/09 09:14:46;;;;;;;1.77;1.08;;;13.70;79.90;;;;;;4972723;28;20495;-77
2021/04/09 09:17:38;;;;;;;3.63;1.30;;;13.70;80.40;;;;;;4974273;28;20046;-78
2021/04/09 09:20:19;;;;;;;2.50;0.80;;;13.80;80.00;;;;;;4951221;28;20116;-77
2021/04/09 09:22:55;;;;;;;4.20;0.88;;;13.90;79.00;;;;;;4976688;28;20050;-81
2021/04/09 09:25:37;;;;;;;1.48;0.85;;;14.00;78.60;;;;;;4970725;28;20314;-76
2021/04/09 09:28:15;;;;;;;4.30;1.17;;;14.10;78.00;;;;;;4972536;28;20049;-76
2021/04/09 09:30:54;;;;;;;4.80;1.00;;;14.10;77.90;;;;;;4976929;28;20063;-81
2021/04/09 09:33:27;;;;;;;3.70;0.90;;;14.20;77.60;;;;;;4971484;28;20050;-76
2021/04/09 09:35:57;;;;;;;3.47;0.90;;;14.20;77.40;;;;;;4972672;28;20041;-76
2021/04/09 09:38:51;;;;;;;2.05;1.00;;;14.30;77.70;;;;;;4976019;28;20050;-76
2021/04/09 09:41:47;;;;;;;4.20;1.13;;;14.40;77.70;;;;;;4957756;28;20634;-76
2021/04/09 09:44:33;;;;;;;3.50;0.90;;;14.40;77.00;;;;;;4924484;28;20070;-76
2021/04/09 09:47:07;;;;;;;2.95;1.00;;;14.30;76.60;;;;;;4978824;28;20038;-75
2021/04/09 09:49:36;;;;;;;2.13;0.95;;;14.30;76.50;;;;;;4973993;28;20500;-73
2021/04/09 09:52:22;;;;;;;4.53;1.00;;;14.50;76.80;;;;;;4968470;28;20054;-75
2021/04/09 09:55:12;;;;;;;2.08;0.68;;;14.70;74.40;;;;;;4976672;28;20043;-74
2021/04/09 09:57:46;;;;;;;1.45;0.60;;;14.90;74.60;;;;;;4976196;28;20141;-76
2021/04/09 10:00:25;;;;;;;2.42;0.90;;;15.10;73.90;;;;;;4968351;28;20052;-76
2021/04/09 10:03:13;;;;;;;1.45;0.80;;;15.00;73.90;;;;;;4957512;28;20054;-76
2021/04/09 10:05:42;;;;;;;1.83;0.50;;;14.90;74.60;;;;;;4978471;28;20053;-76
2021/04/09 10:08:10;;;;;;;1.77;0.60;;;14.90;74.70;;;;;;4970045;28;20074;-76
2021/04/09 10:10:45;;;;;;;1.95;0.73;;;14.90;74.60;;;;;;4958992;28;20729;-76
2021/04/09 10:13:18;;;;;;;3.00;0.80;;;14.70;75.00;;;;;;4972354;28;20615;-77
2021/04/09 10:15:48;;;;;;;3.85;0.98;;;14.90;74.80;;;;;;4990399;28;20075;-78
2021/04/09 10:18:21;;;;;;;2.45;0.80;;;15.10;74.40;;;;;;4976341;28;20570;-77
2021/04/09 10:20:51;;;;;;;3.67;0.55;;;15.30;74.00;;;;;;4997122;28;20498;-77
2021/04/09 10:23:24;;;;;;;3.13;0.70;;;15.20;73.30;;;;;;4974173;28;20136;-76
2021/04/09 10:25:53;;;;;;;3.78;0.50;;;15.20;73.60;;;;;;4980887;28;20052;-75
2021/04/09 10:28:21;;;;;;;1.40;0.55;;;15.10;73.30;;;;;;4961284;28;20129;-76
2021/04/09 10:30:52;;;;;;;1.25;0.50;;;15.20;72.70;;;;;;4979740;28;20049;-75
2021/04/09 10:33:36;;;;;;;2.03;0.82;;;15.60;71.70;;;;;;4976145;28;20141;-76
2021/04/09 10:36:18;;;;;;;2.20;0.70;;;15.40;71.20;;;;;;4989877;28;20450;-76
2021/04/09 10:38:48;;;;;;;1.92;0.50;;;15.10;70.60;;;;;;4993625;28;20038;-76
2021/04/09 10:41:29;;;;;;;1.95;0.50;;;15.30;71.20;;;;;;4966771;28;20038;-75
2021/04/09 10:43:59;;;;;;;3.13;0.73;;;15.50;72.10;;;;;;4992920;28;20073;-75
2021/04/09 10:46:30;;;;;;;2.67;0.65;;;15.50;72.80;;;;;;4975014;28;20563;-75
2021/04/09 10:48:59;;;;;;;2.45;0.98;;;15.70;73.20;;;;;;4987673;28;20067;-74
2021/04/09 10:51:29;;;;;;;2.05;0.50;;;15.60;72.20;;;;;;4993451;28;20042;-75
2021/04/09 10:54:16;;;;;;;3.30;0.60;;;15.60;72.20;;;;;;4983812;28;20056;-75
2021/04/09 10:56:49;;;;;;;1.90;0.60;;;15.80;72.70;;;;;;4972356;28;20043;-75
2021/04/09 10:59:18;;;;;;;1.90;0.70;;;16.00;71.00;;;;;;4971226;28;20382;-76
2021/04/09 11:01:47;;;;;;;1.05;0.50;;;16.10;70.80;;;;;;4973738;28;20039;-76
2021/04/09 11:04:16;;;;;;;1.90;0.60;;;16.20;71.40;;;;;;4976998;28;20045;-76
2021/04/09 11:06:57;;;;;;;2.42;0.75;;;16.60;70.40;;;;;;4993985;28;20148;-76
2021/04/09 11:09:38;;;;;;;0.93;0.60;;;16.50;69.20;;;;;;4979377;28;20042;-77
2021/04/09 11:12:20;;;;;;;1.27;0.50;;;16.50;69.80;;;;;;4982381;28;20046;-79
2021/04/09 11:14:50;;;;;;;3.28;0.80;;;16.60;68.80;;;;;;4991483;28;20553;-79
2021/04/09 11:17:50;;;;;;;1.33;0.50;;;16.70;68.30;;;;;;4965806;28;20056;-79
2021/04/09 11:20:23;;;;;;;0.70;0.40;;;16.70;67.90;;;;;;4994013;28;20149;-78
2021/04/09 11:23:03;;;;;;;0.77;0.55;;;16.80;67.60;;;;;;4976821;28;20034;-78
2021/04/09 11:25:32;;;;;;;2.28;0.55;;;16.80;68.80;;;;;;4993361;28;20052;-78
2021/04/09 11:28:00;;;;;;;3.83;0.50;;;16.50;67.60;;;;;;4974855;28;20392;-78
2021/04/09 11:30:32;;;;;;;1.55;0.68;;;16.30;68.90;;;;;;4961709;28;20046;-78
2021/04/09 11:33:03;;;;;;;1.23;0.52;;;16.50;68.00;;;;;;4991990;28;20592;-78
2021/04/09 11:35:34;;;;;;;2.70;0.80;;;16.60;67.80;;;;;;4976543;28;20549;-78
2021/04/09 11:38:12;;;;;;;1.30;0.55;;;16.70;68.10;;;;;;4980472;28;20046;-77
2021/04/09 11:40:42;;;;;;;1.60;0.57;;;16.70;67.40;;;;;;4974994;28;20045;-77
2021/04/09 11:43:13;;;;;;;1.20;0.50;;;16.70;67.60;;;;;;4980852;28;20304;-76
2021/04/09 11:45:44;;;;;;;2.83;0.68;;;16.70;67.40;;;;;;4995008;28;20525;-76
2021/04/09 11:48:26;;;;;;;0.70;0.40;;;16.80;66.10;;;;;;4994233;28;20042;-75
2021/04/09 11:51:15;;;;;;;2.55;0.47;;;17.10;66.80;;;;;;4979224;28;20049;-75
2021/04/09 11:53:56;;;;;;;1.55;0.50;;;17.30;65.50;;;;;;4994811;28;20115;-73
2021/04/09 11:56:38;;;;;;;2.35;0.70;;;17.20;65.10;;;;;;4971051;28;20427;-74
2021/04/09 11:59:10;;;;;;;1.23;0.63;;;17.50;65.60;;;;;;4981122;28;20056;-77
2021/04/09 12:01:39;;;;;;;3.80;0.60;;;17.70;63.80;;;;;;4978991;28;20511;-78
2021/04/09 12:04:29;;;;;;;1.35;0.50;;;17.80;64.30;;;;;;4980377;28;20042;-82
2021/04/09 12:06:58;;;;;;;2.22;0.40;;;17.70;63.90;;;;;;4989108;28;20136;-83
2021/04/09 12:09:27;;;;;;;3.58;0.50;;;17.70;64.10;;;;;;4982527;28;20161;-79
2021/04/09 12:11:55;;;;;;;2.25;0.40;;;17.60;62.80;;;;;;4975965;28;20038;-79
2021/04/09 12:14:34;;;;;;;1.90;0.60;;;17.60;62.90;;;;;;4970411;28;20394;-79
2021/04/09 12:17:04;;;;;;;1.95;0.60;;;17.80;62.40;;;;;;4973135;28;20042;-78
2021/04/09 12:19:34;;;;;;;3.30;0.40;;;17.80;61.30;;;;;;4973163;28;20038;-78
2021/04/09 12:22:03;;;;;;;2.17;0.60;;;18.00;62.50;;;;;;4977418;28;20069;-79
2021/04/09 12:24:30;;;;;;;1.25;0.60;;;18.00;62.10;;;;;;4958976;28;20074;-78
2021/04/09 12:26:59;;;;;;;3.13;0.60;;;17.80;61.90;;;;;;4953797;28;20141;-79
2021/04/09 12:29:27;;;;;;;1.00;0.50;;;18.00;61.90;;;;;;4968209;28;20122;-77
2021/04/09 12:31:55;;;;;;;2.38;0.57;;;18.20;62.30;;;;;;4962234;28;20078;-78
2021/04/09 12:34:24;;;;;;;2.40;0.40;;;18.40;62.60;;;;;;4976308;28;20058;-79
2021/04/09 12:36:53;;;;;;;2.85;1.15;;;18.60;62.70;;;;;;4973348;28;20145;-79
2021/04/09 12:39:24;;;;;;;2.33;1.25;;;18.50;64.30;;;;;;4975560;28;20047;-79
2021/04/09 12:41:53;;;;;;;2.45;0.75;;;18.20;65.00;;;;;;4975459;28;20043;-78
2021/04/09 12:44:22;;;;;;;1.73;0.80;;;18.00;65.40;;;;;;4978899;28;20629;-78
2021/04/09 12:46:51;;;;;;;4.75;0.80;;;17.80;65.20;;;;;;4976079;28;20476;-78
2021/04/09 12:49:20;;;;;;;2.72;0.60;;;17.90;64.80;;;;;;4970929;28;20054;-78
2021/04/09 12:51:49;;;;;;;2.83;0.50;;;18.00;65.20;;;;;;4970012;28;20610;-78
2021/04/09 12:54:19;;;;;;;3.58;0.50;;;18.00;65.60;;;;;;4960022;28;20592;-77
2021/04/09 12:56:47;;;;;;;0.93;0.40;;;17.90;65.80;;;;;;4981158;28;20046;-77
2021/04/09 12:59:16;;;;;;;4.20;0.63;;;18.20;65.60;;;;;;4976442;28;20140;-78
2021/04/09 13:01:45;;;;;;;2.53;0.60;;;18.30;65.80;;;;;;4974603;28;20049;-78
2021/04/09 13:04:13;;;;;;;3.50;0.50;;;18.30;65.20;;;;;;4978629;28;20408;-78
2021/04/09 13:06:41;;;;;;;0.82;0.45;;;18.20;65.20;;;;;;4974872;28;20050;-78
2021/04/09 13:09:10;;;;;;;3.40;0.60;;;18.40;66.00;;;;;;4979512;28;20448;-77
2021/04/09 13:11:39;;;;;;;2.33;0.50;;;18.50;64.80;;;;;;4977189;28;20160;-78